createdAt,value
2019-04-29T00:00:39.761Z,99.37
2019-04-29T00:01:39.748Z,99.18
2019-04-29T00:03:39.787Z,99.75
2019-04-29T00:04:39.806Z,99.37
2019-04-29T00:05:54.489Z,99.65
2019-04-29T00:06:39.855Z,99.99
2019-04-29T00:07:39.869Z,99.99
2019-04-29T00:08:39.637Z,99.99
2019-04-29T00:09:39.903Z,99.99
2019-04-29T00:10:39.919Z,99.99
2019-04-29T00:11:39.938Z,99.99
2019-04-29T00:12:39.957Z,99.94
2019-04-29T00:13:40.080Z,99.99
2019-04-29T00:14:39.997Z,99.99
2019-04-29T00:15:40.017Z,99.37
2019-04-29T00:16:40.035Z,99.94
2019-04-29T00:19:40.145Z,99.55
2019-04-29T00:20:40.114Z,99.99
2019-04-29T00:21:40.130Z,99.55
2019-04-29T00:22:40.149Z,99.75
2019-04-29T00:23:40.170Z,99.37
2019-04-29T00:24:40.186Z,99.65
2019-04-29T00:25:40.206Z,99.94
2019-04-29T00:26:40.226Z,99.84
2019-04-29T00:27:40.243Z,99.99
2019-04-29T00:28:40.263Z,99.99
2019-04-29T00:29:40.331Z,99.99
2019-04-29T00:30:40.302Z,99.99
2019-04-29T00:31:40.320Z,99.99
2019-04-29T00:32:40.344Z,99.99
2019-04-29T00:33:40.358Z,99.99
2019-04-29T00:34:40.376Z,99.99
2019-04-29T00:35:40.396Z,99.99
2019-04-29T00:36:40.413Z,99.99
2019-04-29T00:37:55.097Z,99.99
2019-04-29T00:38:40.458Z,99.99
2019-04-29T00:39:40.476Z,99.99
2019-04-29T00:40:40.490Z,99.99
2019-04-29T00:41:40.509Z,99.99
2019-04-29T00:42:40.530Z,99.99
2019-04-29T00:43:40.552Z,99.99
2019-04-29T00:44:40.567Z,99.99
2019-04-29T00:45:40.598Z,99.99
2019-04-29T00:46:40.606Z,99.99
2019-04-29T00:47:40.621Z,99.99
2019-04-29T00:48:40.643Z,99.99
2019-04-29T00:49:40.661Z,99.99
2019-04-29T00:51:40.699Z,99.99
2019-04-29T00:52:40.718Z,99.99
2019-04-29T00:53:55.401Z,99.99
2019-04-29T00:54:40.758Z,99.99
2019-04-29T00:55:40.775Z,99.99
2019-04-29T00:56:40.793Z,99.99
2019-04-29T00:57:40.817Z,99.99
2019-04-29T00:58:40.830Z,99.99
2019-04-29T00:59:40.852Z,99.99
2019-04-29T01:00:40.870Z,99.99
2019-04-29T01:01:40.888Z,99.99
2019-04-29T01:02:40.908Z,99.99
2019-04-29T01:03:43.599Z,99.99
2019-04-29T01:04:40.944Z,99.99
2019-04-29T01:05:40.970Z,99.99
2019-04-29T01:07:41.000Z,99.99
2019-04-29T01:08:41.048Z,99.99
2019-04-29T01:09:55.704Z,99.99
2019-04-29T01:10:41.063Z,99.99
2019-04-29T01:11:41.076Z,99.99
2019-04-29T01:12:41.098Z,99.99
2019-04-29T01:13:41.114Z,99.99
2019-04-29T01:14:41.132Z,99.99
2019-04-29T01:15:41.153Z,99.99
2019-04-29T01:16:41.171Z,99.99
2019-04-29T01:17:41.189Z,99.99
2019-04-29T01:18:41.209Z,99.99
2019-04-29T01:19:41.234Z,99.99
2019-04-29T01:20:41.247Z,99.99
2019-04-29T01:21:41.266Z,99.99
2019-04-29T01:22:41.316Z,99.99
2019-04-29T01:23:41.318Z,99.99
2019-04-29T01:24:41.328Z,99.99
2019-04-29T01:25:56.004Z,99.99
2019-04-29T01:26:41.361Z,99.99
2019-04-29T01:27:41.378Z,99.99
2019-04-29T01:28:41.400Z,99.99
2019-04-29T01:29:41.418Z,99.99
2019-04-29T01:30:41.433Z,99.99
2019-04-29T01:31:41.459Z,99.99
2019-04-29T01:32:41.471Z,99.99
2019-04-29T01:33:41.490Z,99.99
2019-04-29T01:35:41.530Z,99.99
2019-04-29T01:36:41.546Z,99.99
2019-04-29T01:38:41.587Z,99.99
2019-04-29T01:39:41.607Z,99.99
2019-04-29T01:40:56.287Z,99.99
2019-04-29T01:41:41.641Z,99.99
2019-04-29T01:42:41.660Z,99.99
2019-04-29T01:43:41.678Z,99.99
2019-04-29T01:44:41.698Z,99.99
2019-04-29T01:45:41.715Z,99.99
2019-04-29T01:46:41.733Z,99.99
2019-04-29T01:47:41.505Z,99.99
2019-04-29T01:48:41.772Z,99.99
2019-04-29T01:49:41.792Z,99.99
2019-04-29T01:50:41.808Z,99.99
2019-04-29T01:51:41.839Z,99.99
2019-04-29T01:54:41.885Z,99.99
2019-04-29T01:55:41.902Z,99.99
2019-04-29T01:56:41.921Z,99.99
2019-04-29T01:57:41.945Z,99.99
2019-04-29T01:58:41.958Z,99.99
2019-04-29T01:59:41.980Z,99.99
2019-04-29T02:00:41.750Z,99.99
2019-04-29T02:01:42.019Z,99.99
2019-04-29T02:02:42.035Z,99.99
2019-04-29T02:03:42.059Z,99.99
2019-04-29T02:05:42.151Z,99.99
2019-04-29T02:06:42.109Z,99.99
2019-04-29T02:07:42.126Z,99.99
2019-04-29T02:08:42.145Z,99.99
2019-04-29T02:09:42.167Z,99.99
2019-04-29T02:10:42.189Z,99.99
2019-04-29T02:11:42.200Z,99.99
2019-04-29T02:12:56.886Z,99.99
2019-04-29T02:13:42.239Z,99.99
2019-04-29T02:14:42.256Z,99.99
2019-04-29T02:15:42.275Z,99.99
2019-04-29T02:16:42.295Z,99.99
2019-04-29T02:17:42.317Z,99.99
2019-04-29T02:18:42.332Z,99.99
2019-04-29T02:19:42.357Z,99.99
2019-04-29T02:20:42.369Z,99.99
2019-04-29T02:21:42.387Z,99.99
2019-04-29T02:22:42.405Z,99.99
2019-04-29T02:23:42.179Z,99.99
2019-04-29T02:24:42.506Z,99.99
2019-04-29T02:25:42.461Z,99.99
2019-04-29T02:26:42.483Z,99.99
2019-04-29T02:27:42.499Z,99.99
2019-04-29T02:28:57.181Z,99.99
2019-04-29T02:29:42.535Z,99.99
2019-04-29T02:30:42.560Z,99.99
2019-04-29T02:32:42.592Z,99.99
2019-04-29T02:33:42.715Z,99.99
2019-04-29T02:34:42.634Z,99.99
2019-04-29T02:36:42.789Z,99.99
2019-04-29T02:37:42.688Z,99.99
2019-04-29T02:38:42.703Z,99.99
2019-04-29T02:39:42.484Z,99.99
2019-04-29T02:40:42.742Z,99.99
2019-04-29T02:41:42.762Z,99.99
2019-04-29T02:42:42.815Z,99.99
2019-04-29T02:43:42.801Z,99.99
2019-04-29T02:44:57.476Z,99.99
2019-04-29T02:45:42.839Z,99.99
2019-04-29T02:46:42.861Z,99.99
2019-04-29T02:47:42.879Z,99.99
2019-04-29T02:49:42.924Z,99.99
2019-04-29T02:50:42.949Z,99.99
2019-04-29T02:51:42.947Z,99.99
2019-04-29T02:52:42.961Z,99.99
2019-04-29T02:53:42.991Z,99.99
2019-04-29T02:54:43.004Z,99.99
2019-04-29T02:55:43.021Z,99.99
2019-04-29T02:56:43.052Z,99.99
2019-04-29T02:57:43.064Z,99.99
2019-04-29T02:58:43.095Z,99.99
2019-04-29T03:00:57.779Z,99.99
2019-04-29T03:01:43.130Z,99.99
2019-04-29T03:02:43.150Z,99.99
2019-04-29T03:03:43.168Z,99.99
2019-04-29T03:04:43.184Z,99.99
2019-04-29T03:05:43.201Z,99.99
2019-04-29T03:06:43.223Z,99.99
2019-04-29T03:07:43.241Z,99.99
2019-04-29T03:08:43.272Z,99.99
2019-04-29T03:09:43.277Z,99.99
2019-04-29T03:10:43.312Z,99.99
2019-04-29T03:11:43.317Z,99.99
2019-04-29T03:12:43.338Z,99.99
2019-04-29T03:13:43.350Z,99.99
2019-04-29T03:14:43.374Z,99.99
2019-04-29T03:15:58.052Z,99.99
2019-04-29T03:16:43.443Z,99.99
2019-04-29T03:17:43.431Z,99.99
2019-04-29T03:18:43.447Z,99.99
2019-04-29T03:19:43.460Z,99.99
2019-04-29T03:20:43.521Z,99.99
2019-04-29T03:21:43.251Z,99.99
2019-04-29T03:22:43.523Z,99.99
2019-04-29T03:23:43.561Z,99.99
2019-04-29T03:24:43.557Z,99.99
2019-04-29T03:25:43.575Z,99.99
2019-04-29T03:26:43.599Z,99.99
2019-04-29T03:28:43.636Z,99.99
2019-04-29T03:30:43.785Z,99.99
2019-04-29T03:31:43.730Z,99.99
2019-04-29T03:32:43.711Z,99.99
2019-04-29T03:33:43.759Z,99.99
2019-04-29T03:34:43.744Z,99.99
2019-04-29T03:35:43.764Z,99.99
2019-04-29T03:36:43.775Z,99.99
2019-04-29T03:37:43.794Z,99.99
2019-04-29T03:38:43.917Z,99.99
2019-04-29T03:39:43.837Z,99.99
2019-04-29T03:40:43.855Z,99.99
2019-04-29T03:42:43.890Z,99.99
2019-04-29T03:43:43.910Z,99.99
2019-04-29T03:44:43.926Z,99.99
2019-04-29T03:45:43.947Z,99.99
2019-04-29T03:46:43.971Z,99.99
2019-04-29T03:47:58.646Z,99.99
2019-04-29T03:48:44.000Z,99.99
2019-04-29T03:49:44.019Z,99.99
2019-04-29T03:50:44.062Z,99.99
2019-04-29T03:51:44.057Z,99.99
2019-04-29T03:52:44.069Z,99.99
2019-04-29T03:53:44.168Z,99.99
2019-04-29T03:54:44.108Z,99.99
2019-04-29T03:55:44.129Z,99.99
2019-04-29T03:56:44.155Z,99.99
2019-04-29T03:57:44.172Z,99.99
2019-04-29T04:00:46.733Z,99.99
2019-04-29T04:01:44.003Z,99.99
2019-04-29T04:02:44.256Z,99.99
2019-04-29T04:03:58.934Z,99.99
2019-04-29T04:04:44.306Z,99.99
2019-04-29T04:05:44.314Z,99.99
2019-04-29T04:06:44.078Z,99.99
2019-04-29T04:07:44.360Z,99.99
2019-04-29T04:08:44.362Z,99.99
2019-04-29T04:09:44.393Z,99.99
2019-04-29T04:11:44.422Z,99.99
2019-04-29T04:12:44.447Z,99.99
2019-04-29T04:13:44.462Z,99.99
2019-04-29T04:14:44.479Z,99.99
2019-04-29T04:15:44.490Z,99.99
2019-04-29T04:16:44.513Z,99.99
2019-04-29T04:17:44.555Z,99.99
2019-04-29T04:18:44.557Z,99.99
2019-04-29T04:19:59.229Z,99.99
2019-04-29T04:20:44.586Z,99.99
2019-04-29T04:21:44.607Z,99.99
2019-04-29T04:22:44.620Z,99.99
2019-04-29T04:23:44.641Z,99.99
2019-04-29T04:24:44.693Z,99.99
2019-04-29T04:25:44.687Z,99.99
2019-04-29T04:26:44.701Z,99.99
2019-04-29T04:29:44.754Z,99.99
2019-04-29T04:31:44.789Z,99.99
2019-04-29T04:32:44.814Z,99.99
2019-04-29T04:33:44.871Z,99.99
2019-04-29T04:34:44.851Z,99.99
2019-04-29T04:35:59.525Z,99.99
2019-04-29T04:36:44.887Z,99.99
2019-04-29T04:37:44.922Z,99.99
2019-04-29T04:38:44.918Z,99.99
2019-04-29T04:39:44.952Z,99.99
2019-04-29T04:40:44.955Z,99.99
2019-04-29T04:41:44.983Z,99.99
2019-04-29T04:42:44.999Z,99.99
2019-04-29T04:43:45.024Z,99.99
2019-04-29T04:44:45.034Z,99.99
2019-04-29T04:46:45.067Z,99.99
2019-04-29T04:47:45.121Z,99.99
2019-04-29T04:48:44.936Z,99.99
2019-04-29T04:49:45.176Z,99.99
2019-04-29T04:50:59.812Z,99.99
2019-04-29T04:51:45.161Z,99.99
2019-04-29T04:52:45.182Z,99.99
2019-04-29T04:53:45.202Z,99.99
2019-04-29T04:54:45.220Z,99.99
2019-04-29T04:55:45.232Z,99.99
2019-04-29T04:56:45.249Z,99.99
2019-04-29T04:57:45.281Z,99.99
2019-04-29T04:58:45.309Z,99.99
2019-04-29T04:59:45.308Z,99.99
2019-04-29T05:00:45.342Z,99.99
2019-04-29T05:01:45.348Z,99.99
2019-04-29T05:02:45.364Z,99.99
2019-04-29T05:03:45.384Z,99.99
2019-04-29T05:04:45.398Z,99.99
2019-04-29T05:05:45.421Z,99.99
2019-04-29T05:06:45.436Z,99.99
2019-04-29T05:07:45.455Z,99.99
2019-04-29T05:08:45.472Z,99.99
2019-04-29T05:09:45.490Z,99.99
2019-04-29T05:10:45.517Z,99.99
2019-04-29T05:11:45.527Z,99.99
2019-04-29T05:12:45.554Z,99.99
2019-04-29T05:14:45.585Z,99.99
2019-04-29T05:15:45.603Z,99.99
2019-04-29T05:17:45.645Z,99.99
2019-04-29T05:18:45.670Z,99.99
2019-04-29T05:20:45.696Z,99.99
2019-04-29T05:21:45.722Z,99.99
2019-04-29T05:23:00.412Z,99.99
2019-04-29T05:23:45.774Z,99.99
2019-04-29T05:24:45.779Z,99.99
2019-04-29T05:25:45.860Z,99.99
2019-04-29T05:26:45.806Z,99.99
2019-04-29T05:28:45.844Z,99.99
2019-04-29T05:29:45.864Z,99.99
2019-04-29T05:30:45.881Z,99.99
2019-04-29T05:31:45.903Z,99.99
2019-04-29T05:32:45.918Z,99.99
2019-04-29T05:33:45.937Z,99.99
2019-04-29T05:34:49.046Z,99.99
2019-04-29T05:35:46.044Z,99.99
2019-04-29T05:36:45.994Z,99.99
2019-04-29T05:37:45.765Z,99.99
2019-04-29T05:39:00.695Z,99.99
2019-04-29T05:39:46.051Z,99.99
2019-04-29T05:40:45.818Z,99.99
2019-04-29T05:41:46.092Z,99.99
2019-04-29T05:42:48.189Z,99.99
2019-04-29T05:43:46.124Z,99.99
2019-04-29T05:44:46.142Z,99.99
2019-04-29T05:46:46.205Z,99.99
2019-04-29T05:47:46.198Z,99.99
2019-04-29T05:48:46.224Z,99.99
2019-04-29T05:49:46.234Z,99.99
2019-04-29T05:50:54.026Z,99.99
2019-04-29T05:51:46.278Z,99.99
2019-04-29T05:52:46.292Z,99.99
2019-04-29T05:53:54.792Z,99.99
2019-04-29T05:55:01.491Z,99.99
2019-04-29T05:55:46.349Z,99.99
2019-04-29T05:56:46.365Z,99.99
2019-04-29T05:57:46.387Z,99.99
2019-04-29T05:58:46.403Z,99.99
2019-04-29T06:00:46.440Z,99.99
2019-04-29T06:01:49.703Z,99.99
2019-04-29T06:02:46.476Z,99.99
2019-04-29T06:03:47.005Z,99.99
2019-04-29T06:04:48.038Z,99.99
2019-04-29T06:05:46.541Z,99.99
2019-04-29T06:06:46.557Z,99.99
2019-04-29T06:07:46.573Z,99.99
2019-04-29T06:08:46.593Z,99.99
2019-04-29T06:09:46.607Z,99.99
2019-04-29T06:11:01.291Z,99.99
2019-04-29T06:11:46.650Z,99.99
2019-04-29T06:12:47.111Z,99.99
2019-04-29T06:13:46.687Z,99.99
2019-04-29T06:14:46.712Z,99.99
2019-04-29T06:15:46.473Z,99.99
2019-04-29T06:16:46.737Z,99.99
2019-04-29T06:17:48.633Z,99.99
2019-04-29T06:18:46.876Z,99.99
2019-04-29T06:19:46.799Z,99.99
2019-04-29T06:20:46.812Z,99.99
2019-04-29T06:21:46.832Z,99.99
2019-04-29T06:23:46.870Z,99.99
2019-04-29T06:24:46.887Z,99.99
2019-04-29T06:26:01.577Z,99.99
2019-04-29T06:26:46.927Z,99.99
2019-04-29T06:27:46.959Z,99.99
2019-04-29T06:28:46.964Z,99.99
2019-04-29T06:29:46.981Z,99.99
2019-04-29T06:31:47.018Z,99.99
2019-04-29T06:32:47.050Z,99.99
2019-04-29T06:34:47.074Z,99.99
2019-04-29T06:35:50.020Z,99.99
2019-04-29T06:36:47.113Z,99.99
2019-04-29T06:37:47.132Z,99.99
2019-04-29T06:39:47.168Z,99.99
2019-04-29T06:40:47.186Z,99.99
2019-04-29T06:41:49.012Z,99.99
2019-04-29T06:42:49.313Z,99.99
2019-04-29T06:43:47.246Z,99.99
2019-04-29T06:44:51.725Z,99.99
2019-04-29T06:45:47.280Z,99.99
2019-04-29T06:46:50.078Z,99.99
2019-04-29T06:47:47.318Z,99.99
2019-04-29T06:48:47.338Z,99.99
2019-04-29T06:49:47.366Z,99.99
2019-04-29T06:50:49.728Z,99.99
2019-04-29T06:51:47.393Z,99.99
2019-04-29T06:52:47.412Z,99.99
2019-04-29T06:53:50.254Z,99.99
2019-04-29T06:54:47.451Z,99.99
2019-04-29T06:55:47.470Z,99.99
2019-04-29T06:56:47.487Z,99.99
2019-04-29T06:58:02.169Z,99.99
2019-04-29T06:58:49.090Z,99.99
2019-04-29T06:59:50.208Z,99.99
2019-04-29T07:00:50.635Z,99.99
2019-04-29T07:01:47.598Z,99.99
2019-04-29T07:02:49.779Z,99.99
2019-04-29T07:03:47.625Z,99.99
2019-04-29T07:04:47.636Z,99.99
2019-04-29T07:06:59.676Z,99.99
2019-04-29T07:07:47.694Z,99.99
2019-04-29T07:08:47.803Z,99.99
2019-04-29T07:09:47.740Z,99.99
2019-04-29T07:10:47.752Z,99.99
2019-04-29T07:11:47.779Z,99.99
2019-04-29T07:12:50.021Z,99.99
2019-04-29T07:14:02.471Z,99.99
2019-04-29T07:14:47.884Z,99.99
2019-04-29T07:15:50.325Z,99.99
2019-04-29T07:16:47.878Z,99.99
2019-04-29T07:17:47.883Z,99.99
2019-04-29T07:19:47.921Z,99.99
2019-04-29T07:20:48.146Z,99.99
2019-04-29T07:21:52.978Z,99.99
2019-04-29T07:22:47.982Z,99.99
2019-04-29T07:23:47.996Z,99.99
2019-04-29T07:24:48.015Z,99.99
2019-04-29T07:25:48.036Z,99.99
2019-04-29T07:27:48.070Z,99.99
2019-04-29T07:30:06.417Z,99.99
2019-04-29T07:31:03.621Z,99.99
2019-04-29T07:31:48.146Z,99.99
2019-04-29T07:32:49.850Z,99.99
2019-04-29T07:33:48.184Z,99.99
2019-04-29T07:34:48.204Z,99.99
2019-04-29T07:35:50.656Z,99.99
2019-04-29T07:36:48.243Z,99.99
2019-04-29T07:37:48.262Z,99.99
2019-04-29T07:38:56.539Z,99.99
2019-04-29T07:39:48.302Z,99.99
2019-04-29T07:40:48.325Z,99.99
2019-04-29T07:41:53.667Z,99.99
2019-04-29T07:42:48.361Z,99.99
2019-04-29T07:43:48.375Z,99.99
2019-04-29T07:44:53.919Z,99.99
2019-04-29T07:46:03.587Z,99.99
2019-04-29T07:47:02.031Z,99.99
2019-04-29T07:48:01.576Z,99.99
2019-04-29T07:49:00.669Z,99.99
2019-04-29T07:49:51.351Z,99.99
2019-04-29T07:50:48.509Z,99.99
2019-04-29T07:51:48.553Z,99.99
2019-04-29T07:52:53.363Z,99.99
2019-04-29T07:53:48.565Z,99.99
2019-04-29T07:54:55.015Z,99.99
2019-04-29T07:55:48.609Z,99.99
2019-04-29T07:56:48.630Z,99.99
2019-04-29T07:58:51.062Z,99.99
2019-04-29T07:59:48.687Z,99.99
2019-04-29T08:01:03.366Z,99.99
2019-04-29T08:01:48.723Z,99.99
2019-04-29T08:02:48.739Z,99.99
2019-04-29T08:03:48.760Z,99.99
2019-04-29T08:04:48.777Z,99.99
2019-04-29T08:05:48.799Z,99.99
2019-04-29T08:07:48.838Z,99.99
2019-04-29T08:09:02.861Z,99.99
2019-04-29T08:09:48.871Z,99.99
2019-04-29T08:10:58.425Z,99.99
2019-04-29T08:11:48.911Z,99.99
2019-04-29T08:12:48.932Z,99.99
2019-04-29T08:13:48.949Z,99.99
2019-04-29T08:14:48.967Z,99.99
2019-04-29T08:15:48.992Z,99.99
2019-04-29T08:16:49.010Z,99.99
2019-04-29T08:17:51.389Z,99.99
2019-04-29T08:18:53.432Z,99.99
2019-04-29T08:19:49.062Z,99.99
2019-04-29T08:20:49.079Z,99.99
2019-04-29T08:21:52.401Z,99.99
2019-04-29T08:22:49.119Z,99.99
2019-04-29T08:23:49.140Z,99.99
2019-04-29T08:24:53.028Z,99.99
2019-04-29T08:25:50.842Z,99.99
2019-04-29T08:26:50.277Z,99.99
2019-04-29T08:27:49.215Z,99.99
2019-04-29T08:29:49.253Z,99.99
2019-04-29T08:30:49.803Z,99.99
2019-04-29T08:31:51.749Z,99.99
2019-04-29T08:33:07.465Z,99.99
2019-04-29T08:33:50.914Z,99.99
2019-04-29T08:34:49.372Z,99.99
2019-04-29T08:35:49.455Z,99.99
2019-04-29T08:36:49.417Z,99.99
2019-04-29T08:37:49.406Z,99.99
2019-04-29T08:38:49.438Z,99.99
2019-04-29T08:40:16.168Z,99.99
2019-04-29T08:40:52.734Z,99.99
2019-04-29T08:42:49.509Z,99.99
2019-04-29T08:43:52.364Z,99.99
2019-04-29T08:44:49.539Z,99.99
2019-04-29T08:45:49.570Z,99.99
2019-04-29T08:46:54.279Z,99.99
2019-04-29T08:47:49.599Z,99.99
2019-04-29T08:49:05.949Z,99.99
2019-04-29T08:49:49.645Z,99.99
2019-04-29T08:50:49.662Z,99.99
2019-04-29T08:51:49.680Z,99.99
2019-04-29T08:52:49.698Z,99.99
2019-04-29T08:53:49.731Z,99.99
2019-04-29T08:54:55.218Z,99.99
2019-04-29T08:55:49.759Z,99.99
2019-04-29T08:57:05.241Z,99.99
2019-04-29T08:57:49.795Z,99.99
2019-04-29T08:58:51.908Z,99.99
2019-04-29T09:00:51.262Z,99.99
2019-04-29T09:01:49.878Z,99.99
2019-04-29T09:02:51.746Z,99.99
2019-04-29T09:03:53.622Z,99.99
2019-04-29T09:05:06.664Z,99.99
2019-04-29T09:06:07.114Z,99.99
2019-04-29T09:06:49.977Z,99.99
2019-04-29T09:07:52.455Z,99.99
2019-04-29T09:08:59.633Z,99.99
2019-04-29T09:09:50.921Z,99.99
2019-04-29T09:10:49.813Z,99.99
2019-04-29T09:11:51.762Z,99.99
2019-04-29T09:12:50.106Z,99.99
2019-04-29T09:13:50.123Z,99.99
2019-04-29T09:14:50.151Z,99.99
2019-04-29T09:15:50.177Z,99.99
2019-04-29T09:16:50.279Z,99.99
2019-04-29T09:17:50.207Z,99.99
2019-04-29T09:18:50.227Z,99.99
2019-04-29T09:19:50.249Z,99.99
2019-04-29T09:21:04.936Z,99.99
2019-04-29T09:21:50.289Z,99.99
2019-04-29T09:22:50.312Z,99.99
2019-04-29T09:23:50.331Z,99.99
2019-04-29T09:26:50.391Z,99.99
2019-04-29T09:27:50.412Z,99.99
2019-04-29T09:28:52.385Z,99.99
2019-04-29T09:29:54.138Z,99.99
2019-04-29T09:30:50.473Z,99.99
2019-04-29T09:31:50.498Z,99.99
2019-04-29T09:33:59.673Z,99.99
2019-04-29T09:34:50.559Z,99.99
2019-04-29T09:36:05.242Z,99.99
2019-04-29T09:36:52.137Z,99.99
2019-04-29T09:37:53.758Z,99.99
2019-04-29T09:38:50.648Z,99.99
2019-04-29T09:40:54.382Z,99.99
2019-04-29T09:41:50.702Z,99.99
2019-04-29T09:42:52.939Z,99.99
2019-04-29T09:43:50.749Z,99.99
2019-04-29T09:44:50.762Z,99.99
2019-04-29T09:45:53.778Z,99.99
2019-04-29T09:46:50.808Z,99.99
2019-04-29T09:47:50.825Z,99.99
2019-04-29T09:48:50.844Z,99.99
2019-04-29T09:49:50.861Z,99.99
2019-04-29T09:50:50.882Z,99.99
2019-04-29T09:51:50.903Z,99.99
2019-04-29T09:52:50.926Z,99.99
2019-04-29T09:53:50.942Z,99.99
2019-04-29T09:54:50.969Z,99.99
2019-04-29T09:55:50.990Z,99.99
2019-04-29T09:56:51.023Z,99.99
2019-04-29T09:57:51.026Z,99.99
2019-04-29T09:58:51.046Z,99.99
2019-04-29T09:59:51.065Z,99.99
2019-04-29T10:00:51.087Z,99.99
2019-04-29T10:01:54.935Z,99.99
2019-04-29T10:02:51.127Z,99.99
2019-04-29T10:03:51.147Z,99.99
2019-04-29T10:04:59.185Z,99.99
2019-04-29T10:05:51.192Z,99.99
2019-04-29T10:06:51.212Z,99.99
2019-04-29T10:08:05.894Z,99.99
2019-04-29T10:08:51.254Z,99.99
2019-04-29T10:10:02.201Z,99.99
2019-04-29T10:10:51.294Z,99.99
2019-04-29T10:11:51.313Z,99.99
2019-04-29T10:12:53.854Z,99.99
2019-04-29T10:13:51.354Z,99.99
2019-04-29T10:14:51.376Z,99.99
2019-04-29T10:15:51.597Z,99.99
2019-04-29T10:16:53.993Z,99.99
2019-04-29T10:17:55.987Z,99.99
2019-04-29T10:18:51.458Z,99.99
2019-04-29T10:19:51.480Z,99.99
2019-04-29T10:20:51.549Z,99.99
2019-04-29T10:21:51.568Z,99.99
2019-04-29T10:22:55.769Z,99.99
2019-04-29T10:24:06.226Z,99.99
2019-04-29T10:24:51.585Z,99.99
2019-04-29T10:25:51.600Z,99.99
2019-04-29T10:26:51.621Z,99.99
2019-04-29T10:27:51.643Z,99.99
2019-04-29T10:28:51.664Z,99.99
2019-04-29T10:30:51.703Z,99.99
2019-04-29T10:31:51.725Z,99.99
2019-04-29T10:32:51.755Z,99.99
2019-04-29T10:33:54.751Z,99.99
2019-04-29T10:34:51.785Z,99.99
2019-04-29T10:35:51.808Z,99.99
2019-04-29T10:36:54.808Z,99.99
2019-04-29T10:37:51.846Z,99.99
2019-04-29T10:38:51.867Z,99.99
2019-04-29T10:40:11.147Z,99.99
2019-04-29T10:40:51.910Z,99.99
2019-04-29T10:41:51.933Z,99.99
2019-04-29T10:42:51.958Z,99.99
2019-04-29T10:43:56.176Z,99.99
2019-04-29T10:44:51.997Z,99.99
2019-04-29T10:45:52.013Z,99.99
2019-04-29T10:47:52.052Z,99.99
2019-04-29T10:48:52.078Z,99.99
2019-04-29T10:49:52.361Z,99.99
2019-04-29T10:50:54.690Z,99.99
2019-04-29T10:51:51.885Z,99.99
2019-04-29T10:52:52.155Z,99.99
2019-04-29T10:53:53.536Z,99.99
2019-04-29T10:54:57.137Z,99.99
2019-04-29T10:56:07.070Z,99.99
2019-04-29T10:56:51.989Z,99.99
2019-04-29T10:57:53.802Z,99.99
2019-04-29T10:58:52.278Z,99.99
2019-04-29T11:00:57.227Z,99.99
2019-04-29T11:02:09.072Z,99.99
2019-04-29T11:02:53.603Z,99.99
2019-04-29T11:03:55.768Z,99.99
2019-04-29T11:04:52.403Z,99.99
2019-04-29T11:06:03.163Z,99.99
2019-04-29T11:06:52.195Z,99.99
2019-04-29T11:07:52.468Z,99.99
2019-04-29T11:08:52.486Z,99.99
2019-04-29T11:09:53.530Z,99.99
2019-04-29T11:11:07.192Z,99.99
2019-04-29T11:11:52.299Z,99.99
2019-04-29T11:12:52.569Z,99.99
2019-04-29T11:13:53.107Z,99.99
2019-04-29T11:14:52.611Z,99.99
2019-04-29T11:15:53.691Z,99.99
2019-04-29T11:16:52.658Z,99.99
2019-04-29T11:18:03.433Z,99.99
2019-04-29T11:18:54.948Z,99.99
2019-04-29T11:19:52.718Z,99.99
2019-04-29T11:20:56.447Z,99.99
2019-04-29T11:21:52.754Z,99.99
2019-04-29T11:22:52.778Z,99.99
2019-04-29T11:23:56.827Z,99.99
2019-04-29T11:24:52.817Z,99.99
2019-04-29T11:25:53.859Z,99.99
2019-04-29T11:26:52.610Z,99.99
2019-04-29T11:27:55.897Z,99.99
2019-04-29T11:28:54.787Z,99.99
2019-04-29T11:29:52.921Z,99.99
2019-04-29T11:30:52.942Z,99.99
2019-04-29T11:32:52.987Z,99.99
2019-04-29T11:33:53.015Z,99.99
2019-04-29T11:34:56.079Z,99.99
2019-04-29T11:35:53.044Z,99.99
2019-04-29T11:36:52.817Z,99.99
2019-04-29T11:37:59.920Z,99.99
2019-04-29T11:39:56.893Z,99.99
2019-04-29T11:40:53.156Z,99.99
2019-04-29T11:41:59.524Z,99.99
2019-04-29T11:43:10.785Z,99.99
2019-04-29T11:43:55.083Z,99.99
2019-04-29T11:44:57.050Z,99.99
2019-04-29T11:45:53.253Z,99.99
2019-04-29T11:46:53.024Z,99.99
2019-04-29T11:47:53.299Z,99.99
2019-04-29T11:48:53.317Z,99.99
2019-04-29T11:49:53.337Z,99.99
2019-04-29T11:50:57.311Z,99.99
2019-04-29T11:52:11.670Z,99.99
2019-04-29T11:52:55.571Z,99.99
2019-04-29T11:53:53.422Z,99.99
2019-04-29T11:54:53.441Z,99.99
2019-04-29T11:55:56.818Z,99.99
2019-04-29T11:56:53.234Z,99.99
2019-04-29T11:57:53.502Z,99.99
2019-04-29T11:59:08.220Z,99.99
2019-04-29T11:59:53.547Z,99.99
2019-04-29T12:00:54.586Z,99.99
2019-04-29T12:01:55.689Z,99.99
2019-04-29T12:02:53.615Z,99.99
2019-04-29T12:03:58.627Z,99.81
2019-04-29T12:04:53.652Z,99.99
2019-04-29T12:05:53.674Z,99.52
2019-04-29T12:06:58.577Z,99.04
2019-04-29T12:07:53.762Z,97.61
2019-04-29T12:08:55.525Z,98.57
2019-04-29T12:09:53.777Z,99.62
2019-04-29T12:11:09.041Z,98.38
2019-04-29T12:12:53.956Z,98.04
2019-04-29T12:13:53.843Z,96.89
2019-04-29T12:15:08.979Z,97.08
2019-04-29T12:15:53.885Z,96.75
2019-04-29T12:16:57.243Z,97.33
2019-04-29T12:17:53.935Z,98.38
2019-04-29T12:18:53.957Z,98.28
2019-04-29T12:19:54.098Z,99.52
2019-04-29T12:20:53.994Z,98.75
2019-04-29T12:21:54.017Z,98.47
2019-04-29T12:22:54.037Z,97.56
2019-04-29T12:24:54.083Z,97.08
2019-04-29T12:26:54.124Z,96.99
2019-04-29T12:28:12.409Z,96.42
2019-04-29T12:28:54.168Z,96.22
2019-04-29T12:29:59.484Z,96.61
2019-04-29T12:31:10.246Z,96.32
2019-04-29T12:31:53.989Z,95.98
2019-04-29T12:32:56.687Z,95.51
2019-04-29T12:33:54.390Z,95.98
2019-04-29T12:34:54.300Z,97.66
2019-04-29T12:35:58.529Z,97.75
2019-04-29T12:36:58.767Z,97.61
2019-04-29T12:37:54.363Z,97.56
2019-04-29T12:38:54.209Z,97.95
2019-04-29T12:39:54.406Z,99.14
2019-04-29T12:40:57.611Z,97.95
2019-04-29T12:41:54.450Z,97.75
2019-04-29T12:42:57.498Z,96.75
2019-04-29T12:43:59.317Z,96.8
2019-04-29T12:44:54.543Z,96.89
2019-04-29T12:46:10.314Z,97.37
2019-04-29T12:46:54.563Z,96.89
2019-04-29T12:47:54.584Z,96.75
2019-04-29T12:48:54.610Z,97.04
2019-04-29T12:49:54.630Z,96.08
2019-04-29T12:50:59.823Z,95.07
2019-04-29T12:51:54.673Z,95.12
2019-04-29T12:52:54.692Z,94.93
2019-04-29T12:53:54.717Z,94.98
2019-04-29T12:54:54.486Z,94.21
2019-04-29T12:55:56.198Z,93.11
2019-04-29T12:56:54.790Z,94.02
2019-04-29T12:57:54.866Z,93.4
2019-04-29T12:58:59.545Z,92.73
2019-04-29T12:59:57.020Z,91.63
2019-04-29T13:01:05.747Z,90.09
2019-04-29T13:02:01.847Z,90.09
2019-04-29T13:03:04.489Z,90.33
2019-04-29T13:04:01.170Z,90.91
2019-04-29T13:05:01.194Z,91
2019-04-29T13:06:04.646Z,91
2019-04-29T13:07:01.288Z,91
2019-04-29T13:08:01.257Z,90.33
2019-04-29T13:09:17.106Z,90.14
2019-04-29T13:10:06.813Z,90.62
2019-04-29T13:12:20.399Z,92.58
2019-04-29T13:13:01.372Z,92.73
2019-04-29T13:15:16.080Z,92.25
2019-04-29T13:16:01.440Z,91.96
2019-04-29T13:17:13.930Z,91.29
2019-04-29T13:18:12.533Z,91.05
2019-04-29T13:19:17.164Z,90
2019-04-29T13:20:07.177Z,90.47
2019-04-29T13:21:12.592Z,90.14
2019-04-29T13:22:01.629Z,89.95
2019-04-29T13:23:33.070Z,91
2019-04-29T13:24:28.253Z,90.81
2019-04-29T13:25:29.248Z,90.76
2019-04-29T13:26:33.169Z,90.38
2019-04-29T13:27:29.042Z,90.09
2019-04-29T13:28:34.640Z,90.28
2019-04-29T13:29:32.043Z,90.57
2019-04-29T13:30:27.455Z,90.95
2019-04-29T13:31:40.611Z,90.19
2019-04-29T13:32:35.447Z,89.13
2019-04-29T13:33:27.527Z,90.09
2019-04-29T13:34:34.038Z,88.75
2019-04-29T13:35:27.568Z,89.51
2019-04-29T13:36:42.255Z,90.43
2019-04-29T13:37:27.613Z,90.23
2019-04-29T13:38:27.637Z,91.39
2019-04-29T13:39:41.741Z,91.82
2019-04-29T13:40:27.682Z,91.39
2019-04-29T13:41:28.440Z,90.72
2019-04-29T13:42:27.740Z,90.72
2019-04-29T13:43:34.937Z,89.9
2019-04-29T13:44:27.771Z,89.76
2019-04-29T13:45:28.822Z,90.43
2019-04-29T13:46:27.815Z,90.57
2019-04-29T13:47:31.692Z,89.23
2019-04-29T13:49:27.959Z,89.04
2019-04-29T13:50:41.493Z,88.79
2019-04-29T13:51:38.175Z,88.75
2019-04-29T13:52:42.616Z,90.09